Abbeville, Mississippi
Current Conditions -  °F | °C
As of 4:55 PM on Thursday 18 Dec 2014 (Local Time) from KUOX Reporting Station
Overcast Overcast  
Wind Chill:   Ceiling: 2600
Heat Index:   Visibility: 10mi
Dew Point:   Wind: 7mph
Humidity: 76%   Direction: 30°NNE
Pressure: 30.19"   Gusts: NA
Location:  34.5°N, 89.5°W
Report Text: KUOX 182255Z AUTO 03006KT 10SM OVC026 07/03 A3019 RMK AO2 PWINO PNO
Loading
Personal Weather Stations






























Interactive Weather Map New forecast layout! Learn more

10-Day Weather Forecast

Advertisements
Track Severe Weather on mobile